sensor_id;sensor_type;location;lat;lon;timestamp;temperature;humidity
12588;DHT22;6359;51.450;7.346;2023-06-24T00:01:29;14.50;99.90
12588;DHT22;6359;51.450;7.346;2023-06-24T00:03:58;14.50;99.90
12588;DHT22;6359;51.450;7.346;2023-06-24T00:06:25;14.50;99.90
12588;DHT22;6359;51.450;7.346;2023-06-24T00:08:52;14.40;99.90
12588;DHT22;6359;51.450;7.346;2023-06-24T00:11:26;14.30;99.90
12588;DHT22;6359;51.450;7.346;2023-06-24T00:13:53;14.40;99.90
12588;DHT22;6359;51.450;7.346;2023-06-24T00:16:20;14.50;99.90
12588;DHT22;6359;51.450;7.346;2023-06-24T00:18:52;14.50;99.90
12588;DHT22;6359;51.450;7.346;2023-06-24T00:21:20;14.50;99.90
12588;DHT22;6359;51.450;7.346;2023-06-24T00:23:48;14.60;99.90
12588;DHT22;6359;51.450;7.346;2023-06-24T00:26:15;14.60;99.90
12588;DHT22;6359;51.450;7.346;2023-06-24T00:28:43;14.60;99.90
12588;DHT22;6359;51.450;7.346;2023-06-24T00:31:10;14.60;99.90
12588;DHT22;6359;51.450;7.346;2023-06-24T00:33:37;14.50;99.90
12588;DHT22;6359;51.450;7.346;2023-06-24T00:36:04;14.40;99.90
12588;DHT22;6359;51.450;7.346;2023-06-24T00:38:35;14.30;99.90
12588;DHT22;6359;51.450;7.346;2023-06-24T00:41:02;14.30;99.90
12588;DHT22;6359;51.450;7.346;2023-06-24T00:43:29;14.20;99.90
12588;DHT22;6359;51.450;7.346;2023-06-24T00:45:57;14.20;99.90
12588;DHT22;6359;51.450;7.346;2023-06-24T00:48:24;14.20;99.90
12588;DHT22;6359;51.450;7.346;2023-06-24T00:50:50;14.20;99.90
12588;DHT22;6359;51.450;7.346;2023-06-24T00:53:18;14.10;99.90
12588;DHT22;6359;51.450;7.346;2023-06-24T00:55:47;14.10;99.90
12588;DHT22;6359;51.450;7.346;2023-06-24T00:58:15;14.00;99.90
12588;DHT22;6359;51.450;7.346;2023-06-24T01:00:42;14.00;99.90
12588;DHT22;6359;51.450;7.346;2023-06-24T01:03:10;14.10;99.90
12588;DHT22;6359;51.450;7.346;2023-06-24T01:05:40;14.20;99.90
12588;DHT22;6359;51.450;7.346;2023-06-24T01:08:07;14.20;99.90
12588;DHT22;6359;51.450;7.346;2023-06-24T01:10:35;14.10;99.90
12588;DHT22;6359;51.450;7.346;2023-06-24T01:13:04;14.00;99.90
12588;DHT22;6359;51.450;7.346;2023-06-24T01:15:31;14.00;99.90
12588;DHT22;6359;51.450;7.346;2023-06-24T01:18:02;14.00;99.90
12588;DHT22;6359;51.450;7.346;2023-06-24T01:20:33;14.10;99.90
12588;DHT22;6359;51.450;7.346;2023-06-24T01:26:25;14.00;99.90
12588;DHT22;6359;51.450;7.346;2023-06-24T01:29:26;14.00;99.90
12588;DHT22;6359;51.450;7.346;2023-06-24T01:32:01;13.90;99.90
12588;DHT22;6359;51.450;7.346;2023-06-24T01:34:36;13.90;99.90
12588;DHT22;6359;51.450;7.346;2023-06-24T01:37:10;13.80;99.90
12588;DHT22;6359;51.450;7.346;2023-06-24T01:39:42;13.90;99.90
12588;DHT22;6359;51.450;7.346;2023-06-24T01:42:12;13.90;99.90
12588;DHT22;6359;51.450;7.346;2023-06-24T01:44:42;13.90;99.90
12588;DHT22;6359;51.450;7.346;2023-06-24T01:47:11;13.80;99.90
12588;DHT22;6359;51.450;7.346;2023-06-24T01:49:42;13.70;99.90
12588;DHT22;6359;51.450;7.346;2023-06-24T01:52:10;13.90;99.90
12588;DHT22;6359;51.450;7.346;2023-06-24T01:54:39;13.80;99.90
12588;DHT22;6359;51.450;7.346;2023-06-24T01:57:08;13.80;99.90
12588;DHT22;6359;51.450;7.346;2023-06-24T01:59:39;13.70;99.90
12588;DHT22;6359;51.450;7.346;2023-06-24T02:02:07;13.70;99.90
12588;DHT22;6359;51.450;7.346;2023-06-24T02:04:36;13.60;99.90
12588;DHT22;6359;51.450;7.346;2023-06-24T02:07:04;13.60;99.90
12588;DHT22;6359;51.450;7.346;2023-06-24T02:09:33;13.60;99.90
12588;DHT22;6359;51.450;7.346;2023-06-24T02:12:02;13.60;99.90
12588;DHT22;6359;51.450;7.346;2023-06-24T02:14:30;13.70;99.90
12588;DHT22;6359;51.450;7.346;2023-06-24T02:16:59;13.60;99.90
12588;DHT22;6359;51.450;7.346;2023-06-24T02:19:29;13.60;99.90
12588;DHT22;6359;51.450;7.346;2023-06-24T02:21:58;13.60;99.90
12588;DHT22;6359;51.450;7.346;2023-06-24T02:24:26;13.60;99.90
12588;DHT22;6359;51.450;7.346;2023-06-24T02:26:54;13.50;99.90
12588;DHT22;6359;51.450;7.346;2023-06-24T02:29:22;13.60;99.90
12588;DHT22;6359;51.450;7.346;2023-06-24T02:31:51;13.50;99.90
12588;DHT22;6359;51.450;7.346;2023-06-24T02:34:18;13.50;99.90
12588;DHT22;6359;51.450;7.346;2023-06-24T02:36:45;13.40;99.90
12588;DHT22;6359;51.450;7.346;2023-06-24T02:39:14;13.40;99.90
12588;DHT22;6359;51.450;7.346;2023-06-24T02:41:40;13.40;99.90
12588;DHT22;6359;51.450;7.346;2023-06-24T02:44:08;13.40;99.90
12588;DHT22;6359;51.450;7.346;2023-06-24T02:46:36;13.40;99.90
12588;DHT22;6359;51.450;7.346;2023-06-24T02:49:03;13.30;99.90
12588;DHT22;6359;51.450;7.346;2023-06-24T02:51:30;13.30;99.90
12588;DHT22;6359;51.450;7.346;2023-06-24T02:53:58;13.40;99.90
12588;DHT22;6359;51.450;7.346;2023-06-24T02:56:26;13.50;99.90
12588;DHT22;6359;51.450;7.346;2023-06-24T02:58:54;13.40;99.90
12588;DHT22;6359;51.450;7.346;2023-06-24T03:01:21;13.40;99.90
12588;DHT22;6359;51.450;7.346;2023-06-24T03:03:52;13.40;99.90
12588;DHT22;6359;51.450;7.346;2023-06-24T03:06:20;13.30;99.90
12588;DHT22;6359;51.450;7.346;2023-06-24T03:08:48;13.40;99.90
12588;DHT22;6359;51.450;7.346;2023-06-24T03:11:15;13.50;99.90
12588;DHT22;6359;51.450;7.346;2023-06-24T03:13:44;13.50;99.90
12588;DHT22;6359;51.450;7.346;2023-06-24T03:16:11;13.50;99.90
12588;DHT22;6359;51.450;7.346;2023-06-24T03:18:40;13.70;99.90
12588;DHT22;6359;51.450;7.346;2023-06-24T03:21:07;13.70;99.90
12588;DHT22;6359;51.450;7.346;2023-06-24T03:23:34;13.60;99.90
12588;DHT22;6359;51.450;7.346;2023-06-24T03:26:01;13.60;99.90
12588;DHT22;6359;51.450;7.346;2023-06-24T03:28:29;13.60;99.90
12588;DHT22;6359;51.450;7.346;2023-06-24T03:30:57;13.60;99.90
12588;DHT22;6359;51.450;7.346;2023-06-24T03:33:24;13.60;99.90
12588;DHT22;6359;51.450;7.346;2023-06-24T03:35:53;13.50;99.90
12588;DHT22;6359;51.450;7.346;2023-06-24T03:38:20;13.60;99.90
12588;DHT22;6359;51.450;7.346;2023-06-24T03:40:47;13.60;99.90
12588;DHT22;6359;51.450;7.346;2023-06-24T03:43:14;13.60;99.90
12588;DHT22;6359;51.450;7.346;2023-06-24T03:45:41;13.60;99.90
12588;DHT22;6359;51.450;7.346;2023-06-24T03:48:10;13.70;99.90
12588;DHT22;6359;51.450;7.346;2023-06-24T03:50:37;13.80;99.90
12588;DHT22;6359;51.450;7.346;2023-06-24T03:53:04;13.80;99.90
12588;DHT22;6359;51.450;7.346;2023-06-24T03:55:31;13.80;99.90
12588;DHT22;6359;51.450;7.346;2023-06-24T03:57:58;13.90;99.90
12588;DHT22;6359;51.450;7.346;2023-06-24T04:00:25;14.00;99.90
12588;DHT22;6359;51.450;7.346;2023-06-24T04:02:52;14.00;99.90
12588;DHT22;6359;51.450;7.346;2023-06-24T04:05:20;14.00;99.90
12588;DHT22;6359;51.450;7.346;2023-06-24T04:07:47;14.00;99.90
12588;DHT22;6359;51.450;7.346;2023-06-24T04:10:17;14.10;99.90
12588;DHT22;6359;51.450;7.346;2023-06-24T04:12:44;14.10;99.90
12588;DHT22;6359;51.450;7.346;2023-06-24T04:15:11;14.30;99.90
12588;DHT22;6359;51.450;7.346;2023-06-24T04:17:38;14.30;99.90
12588;DHT22;6359;51.450;7.346;2023-06-24T04:20:06;14.50;99.90
12588;DHT22;6359;51.450;7.346;2023-06-24T04:22:36;14.50;99.90
12588;DHT22;6359;51.450;7.346;2023-06-24T04:25:03;14.70;99.90
12588;DHT22;6359;51.450;7.346;2023-06-24T04:27:31;14.80;99.90
12588;DHT22;6359;51.450;7.346;2023-06-24T04:29:58;15.00;99.90
12588;DHT22;6359;51.450;7.346;2023-06-24T04:32:25;15.20;99.90
12588;DHT22;6359;51.450;7.346;2023-06-24T04:34:52;15.40;99.90
12588;DHT22;6359;51.450;7.346;2023-06-24T04:37:19;15.60;99.90
12588;DHT22;6359;51.450;7.346;2023-06-24T04:39:47;15.70;99.90
12588;DHT22;6359;51.450;7.346;2023-06-24T04:42:14;15.90;99.90
12588;DHT22;6359;51.450;7.346;2023-06-24T04:44:41;16.20;99.90
12588;DHT22;6359;51.450;7.346;2023-06-24T04:47:08;16.50;99.90
12588;DHT22;6359;51.450;7.346;2023-06-24T04:49:35;16.90;99.90
12588;DHT22;6359;51.450;7.346;2023-06-24T04:52:02;17.30;99.90
12588;DHT22;6359;51.450;7.346;2023-06-24T04:54:29;17.60;99.90
12588;DHT22;6359;51.450;7.346;2023-06-24T04:56:57;17.80;99.90
12588;DHT22;6359;51.450;7.346;2023-06-24T04:59:24;17.90;99.90
12588;DHT22;6359;51.450;7.346;2023-06-24T05:01:51;18.00;99.90
12588;DHT22;6359;51.450;7.346;2023-06-24T05:04:18;18.00;99.90
12588;DHT22;6359;51.450;7.346;2023-06-24T05:06:45;18.10;99.90
12588;DHT22;6359;51.450;7.346;2023-06-24T05:09:12;18.10;99.90
12588;DHT22;6359;51.450;7.346;2023-06-24T05:11:39;18.20;99.90
12588;DHT22;6359;51.450;7.346;2023-06-24T05:14:08;18.20;99.90
12588;DHT22;6359;51.450;7.346;2023-06-24T05:16:35;18.30;99.90
12588;DHT22;6359;51.450;7.346;2023-06-24T05:19:01;18.40;99.90
12588;DHT22;6359;51.450;7.346;2023-06-24T05:21:28;18.50;99.90
12588;DHT22;6359;51.450;7.346;2023-06-24T05:23:55;18.70;99.90
12588;DHT22;6359;51.450;7.346;2023-06-24T05:26:22;18.90;99.90
12588;DHT22;6359;51.450;7.346;2023-06-24T05:28:49;19.10;99.90
12588;DHT22;6359;51.450;7.346;2023-06-24T05:31:17;19.10;99.90
12588;DHT22;6359;51.450;7.346;2023-06-24T05:33:44;19.20;99.90
12588;DHT22;6359;51.450;7.346;2023-06-24T05:36:11;19.40;99.90
12588;DHT22;6359;51.450;7.346;2023-06-24T05:38:38;19.50;99.90
12588;DHT22;6359;51.450;7.346;2023-06-24T05:41:05;19.80;99.90
12588;DHT22;6359;51.450;7.346;2023-06-24T05:43:31;20.50;99.90
12588;DHT22;6359;51.450;7.346;2023-06-24T05:45:58;20.70;99.90
12588;DHT22;6359;51.450;7.346;2023-06-24T05:48:27;20.90;99.90
12588;DHT22;6359;51.450;7.346;2023-06-24T05:50:54;21.20;99.90
12588;DHT22;6359;51.450;7.346;2023-06-24T05:53:21;21.50;99.90
12588;DHT22;6359;51.450;7.346;2023-06-24T05:55:48;22.20;99.90
12588;DHT22;6359;51.450;7.346;2023-06-24T05:58:14;22.80;99.90
12588;DHT22;6359;51.450;7.346;2023-06-24T06:00:41;23.30;99.90
12588;DHT22;6359;51.450;7.346;2023-06-24T06:03:08;23.30;99.90
12588;DHT22;6359;51.450;7.346;2023-06-24T06:05:37;23.70;99.90
12588;DHT22;6359;51.450;7.346;2023-06-24T06:08:04;23.80;99.90
12588;DHT22;6359;51.450;7.346;2023-06-24T06:10:31;23.50;99.90
12588;DHT22;6359;51.450;7.346;2023-06-24T06:12:58;23.50;99.90
12588;DHT22;6359;51.450;7.346;2023-06-24T06:15:25;23.40;99.90
12588;DHT22;6359;51.450;7.346;2023-06-24T06:17:52;23.20;99.90
12588;DHT22;6359;51.450;7.346;2023-06-24T06:20:19;23.00;99.90
12588;DHT22;6359;51.450;7.346;2023-06-24T06:22:47;22.70;99.90
12588;DHT22;6359;51.450;7.346;2023-06-24T06:25:14;22.40;99.90
12588;DHT22;6359;51.450;7.346;2023-06-24T06:27:40;22.10;99.90
12588;DHT22;6359;51.450;7.346;2023-06-24T06:30:08;21.80;99.90
12588;DHT22;6359;51.450;7.346;2023-06-24T06:32:35;21.80;99.90
12588;DHT22;6359;51.450;7.346;2023-06-24T06:35:03;22.60;99.90
12588;DHT22;6359;51.450;7.346;2023-06-24T06:37:30;23.90;99.90
12588;DHT22;6359;51.450;7.346;2023-06-24T06:39:58;25.00;99.90
12588;DHT22;6359;51.450;7.346;2023-06-24T06:42:25;25.60;99.90
12588;DHT22;6359;51.450;7.346;2023-06-24T06:44:51;25.80;99.90
12588;DHT22;6359;51.450;7.346;2023-06-24T06:47:18;25.40;99.90
12588;DHT22;6359;51.450;7.346;2023-06-24T06:49:45;25.90;99.90
12588;DHT22;6359;51.450;7.346;2023-06-24T06:52:12;26.80;99.90
12588;DHT22;6359;51.450;7.346;2023-06-24T06:54:39;27.00;99.90
12588;DHT22;6359;51.450;7.346;2023-06-24T06:57:07;27.70;99.90
12588;DHT22;6359;51.450;7.346;2023-06-24T06:59:34;27.50;99.90
12588;DHT22;6359;51.450;7.346;2023-06-24T07:02:01;26.80;99.90
12588;DHT22;6359;51.450;7.346;2023-06-24T07:04:27;26.30;99.90
12588;DHT22;6359;51.450;7.346;2023-06-24T07:06:56;26.60;99.90
12588;DHT22;6359;51.450;7.346;2023-06-24T07:09:23;27.90;99.90
12588;DHT22;6359;51.450;7.346;2023-06-24T07:11:50;29.00;99.90
12588;DHT22;6359;51.450;7.346;2023-06-24T07:14:18;30.10;99.90
12588;DHT22;6359;51.450;7.346;2023-06-24T07:16:45;31.00;99.90
12588;DHT22;6359;51.450;7.346;2023-06-24T07:19:12;31.30;99.90
12588;DHT22;6359;51.450;7.346;2023-06-24T07:21:38;31.60;99.90
12588;DHT22;6359;51.450;7.346;2023-06-24T07:24:05;31.20;99.90
12588;DHT22;6359;51.450;7.346;2023-06-24T07:26:32;31.50;99.90
12588;DHT22;6359;51.450;7.346;2023-06-24T07:28:59;32.00;99.90
12588;DHT22;6359;51.450;7.346;2023-06-24T07:31:27;32.40;99.90
12588;DHT22;6359;51.450;7.346;2023-06-24T07:33:54;32.00;99.90
12588;DHT22;6359;51.450;7.346;2023-06-24T07:36:21;31.10;99.90
12588;DHT22;6359;51.450;7.346;2023-06-24T07:38:48;31.30;99.90
12588;DHT22;6359;51.450;7.346;2023-06-24T07:41:15;32.00;99.90
12588;DHT22;6359;51.450;7.346;2023-06-24T07:43:42;31.50;99.90
12588;DHT22;6359;51.450;7.346;2023-06-24T07:46:08;32.20;99.90
12588;DHT22;6359;51.450;7.346;2023-06-24T07:48:37;32.80;99.90
12588;DHT22;6359;51.450;7.346;2023-06-24T07:51:04;33.50;99.90
12588;DHT22;6359;51.450;7.346;2023-06-24T07:53:30;33.00;99.90
12588;DHT22;6359;51.450;7.346;2023-06-24T07:55:59;32.90;99.90
12588;DHT22;6359;51.450;7.346;2023-06-24T07:58:25;33.20;99.90
12588;DHT22;6359;51.450;7.346;2023-06-24T08:00:52;33.60;99.90
12588;DHT22;6359;51.450;7.346;2023-06-24T08:03:19;33.70;99.90
12588;DHT22;6359;51.450;7.346;2023-06-24T08:05:48;33.80;99.90
12588;DHT22;6359;51.450;7.346;2023-06-24T08:08:15;34.60;99.90
12588;DHT22;6359;51.450;7.346;2023-06-24T08:10:43;34.60;99.90
12588;DHT22;6359;51.450;7.346;2023-06-24T08:13:10;35.20;99.90
12588;DHT22;6359;51.450;7.346;2023-06-24T08:15:37;35.20;99.90
12588;DHT22;6359;51.450;7.346;2023-06-24T08:18:04;35.00;99.90
12588;DHT22;6359;51.450;7.346;2023-06-24T08:20:31;34.20;99.90
12588;DHT22;6359;51.450;7.346;2023-06-24T08:22:59;33.40;99.90
12588;DHT22;6359;51.450;7.346;2023-06-24T08:25:45;32.90;99.90
12588;DHT22;6359;51.450;7.346;2023-06-24T08:28:30;33.10;99.90
12588;DHT22;6359;51.450;7.346;2023-06-24T08:31:15;33.80;99.90
12588;DHT22;6359;51.450;7.346;2023-06-24T08:33:43;33.90;99.90
12588;DHT22;6359;51.450;7.346;2023-06-24T08:36:10;34.20;99.90
12588;DHT22;6359;51.450;7.346;2023-06-24T08:38:39;34.30;99.90
12588;DHT22;6359;51.450;7.346;2023-06-24T08:41:06;34.10;99.90
12588;DHT22;6359;51.450;7.346;2023-06-24T08:43:34;33.30;99.90
12588;DHT22;6359;51.450;7.346;2023-06-24T08:46:01;33.00;99.90
12588;DHT22;6359;51.450;7.346;2023-06-24T08:48:30;32.70;99.90
12588;DHT22;6359;51.450;7.346;2023-06-24T08:50:58;33.00;99.90
12588;DHT22;6359;51.450;7.346;2023-06-24T08:53:26;33.40;99.90
12588;DHT22;6359;51.450;7.346;2023-06-24T08:55:56;33.90;99.90
12588;DHT22;6359;51.450;7.346;2023-06-24T08:58:23;33.90;99.90
12588;DHT22;6359;51.450;7.346;2023-06-24T09:00:50;34.30;99.90
12588;DHT22;6359;51.450;7.346;2023-06-24T09:03:17;34.50;99.90
12588;DHT22;6359;51.450;7.346;2023-06-24T09:05:44;34.40;99.90
12588;DHT22;6359;51.450;7.346;2023-06-24T09:08:10;34.60;99.90
12588;DHT22;6359;51.450;7.346;2023-06-24T09:10:38;34.40;99.90
12588;DHT22;6359;51.450;7.346;2023-06-24T09:13:06;34.60;99.90
12588;DHT22;6359;51.450;7.346;2023-06-24T09:15:34;34.60;99.90
12588;DHT22;6359;51.450;7.346;2023-06-24T09:18:02;34.90;99.90
12588;DHT22;6359;51.450;7.346;2023-06-24T09:20:30;34.30;99.90
12588;DHT22;6359;51.450;7.346;2023-06-24T09:23:01;34.90;99.90
12588;DHT22;6359;51.450;7.346;2023-06-24T09:25:28;34.90;99.90
12588;DHT22;6359;51.450;7.346;2023-06-24T09:27:58;34.40;99.90
12588;DHT22;6359;51.450;7.346;2023-06-24T09:30:27;34.50;99.90
12588;DHT22;6359;51.450;7.346;2023-06-24T09:32:55;34.50;99.90
12588;DHT22;6359;51.450;7.346;2023-06-24T09:35:23;35.00;99.90
12588;DHT22;6359;51.450;7.346;2023-06-24T09:37:51;34.50;99.90
12588;DHT22;6359;51.450;7.346;2023-06-24T09:40:18;34.40;99.90
12588;DHT22;6359;51.450;7.346;2023-06-24T09:42:53;34.10;99.90
12588;DHT22;6359;51.450;7.346;2023-06-24T09:45:22;34.30;99.90
12588;DHT22;6359;51.450;7.346;2023-06-24T09:47:51;34.80;99.90
12588;DHT22;6359;51.450;7.346;2023-06-24T09:50:18;34.10;99.90
12588;DHT22;6359;51.450;7.346;2023-06-24T09:52:46;34.30;99.90
12588;DHT22;6359;51.450;7.346;2023-06-24T09:55:15;34.50;99.90
12588;DHT22;6359;51.450;7.346;2023-06-24T09:57:45;34.50;99.90
12588;DHT22;6359;51.450;7.346;2023-06-24T10:00:14;33.10;99.90
12588;DHT22;6359;51.450;7.346;2023-06-24T10:02:42;33.70;99.90
12588;DHT22;6359;51.450;7.346;2023-06-24T10:05:11;33.70;99.90
12588;DHT22;6359;51.450;7.346;2023-06-24T10:07:39;33.80;99.90
12588;DHT22;6359;51.450;7.346;2023-06-24T10:10:07;33.90;99.90
12588;DHT22;6359;51.450;7.346;2023-06-24T10:12:35;34.10;99.90
12588;DHT22;6359;51.450;7.346;2023-06-24T10:15:03;34.10;99.90
12588;DHT22;6359;51.450;7.346;2023-06-24T10:17:32;34.40;99.90
12588;DHT22;6359;51.450;7.346;2023-06-24T10:20:03;34.70;99.90
12588;DHT22;6359;51.450;7.346;2023-06-24T10:22:33;34.40;99.90
12588;DHT22;6359;51.450;7.346;2023-06-24T10:25:04;34.00;99.90
12588;DHT22;6359;51.450;7.346;2023-06-24T10:27:38;34.70;99.90
12588;DHT22;6359;51.450;7.346;2023-06-24T10:30:06;34.40;99.90
12588;DHT22;6359;51.450;7.346;2023-06-24T10:32:40;34.90;99.90
12588;DHT22;6359;51.450;7.346;2023-06-24T10:35:22;35.20;99.90
12588;DHT22;6359;51.450;7.346;2023-06-24T10:37:55;34.90;99.90
12588;DHT22;6359;51.450;7.346;2023-06-24T10:40:36;34.80;99.90
12588;DHT22;6359;51.450;7.346;2023-06-24T10:43:24;34.50;99.90
12588;DHT22;6359;51.450;7.346;2023-06-24T10:45:53;34.00;99.90
12588;DHT22;6359;51.450;7.346;2023-06-24T10:48:21;34.40;99.90
12588;DHT22;6359;51.450;7.346;2023-06-24T10:50:48;34.20;99.90
12588;DHT22;6359;51.450;7.346;2023-06-24T10:53:18;33.80;99.90
12588;DHT22;6359;51.450;7.346;2023-06-24T10:55:45;33.60;99.90
12588;DHT22;6359;51.450;7.346;2023-06-24T10:58:13;33.40;99.90
12588;DHT22;6359;51.450;7.346;2023-06-24T11:00:41;34.00;99.90
12588;DHT22;6359;51.450;7.346;2023-06-24T11:03:09;34.00;99.90
12588;DHT22;6359;51.450;7.346;2023-06-24T11:05:39;33.80;99.90
12588;DHT22;6359;51.450;7.346;2023-06-24T11:08:06;34.00;99.90
12588;DHT22;6359;51.450;7.346;2023-06-24T11:10:42;34.00;99.90
12588;DHT22;6359;51.450;7.346;2023-06-24T11:13:10;34.00;99.90
12588;DHT22;6359;51.450;7.346;2023-06-24T11:15:38;33.50;99.90
12588;DHT22;6359;51.450;7.346;2023-06-24T11:18:05;33.60;99.90
12588;DHT22;6359;51.450;7.346;2023-06-24T11:20:34;33.60;99.90
12588;DHT22;6359;51.450;7.346;2023-06-24T11:23:02;33.10;99.90
12588;DHT22;6359;51.450;7.346;2023-06-24T11:25:29;32.70;99.90
12588;DHT22;6359;51.450;7.346;2023-06-24T11:27:57;32.40;99.90
12588;DHT22;6359;51.450;7.346;2023-06-24T11:30:24;32.10;99.90
12588;DHT22;6359;51.450;7.346;2023-06-24T11:32:51;31.70;99.90
12588;DHT22;6359;51.450;7.346;2023-06-24T11:35:18;31.30;99.90
12588;DHT22;6359;51.450;7.346;2023-06-24T11:37:46;31.00;99.90
12588;DHT22;6359;51.450;7.346;2023-06-24T11:40:16;30.90;99.90
12588;DHT22;6359;51.450;7.346;2023-06-24T11:42:44;31.00;99.90
12588;DHT22;6359;51.450;7.346;2023-06-24T11:45:20;31.10;99.90
12588;DHT22;6359;51.450;7.346;2023-06-24T11:47:46;31.20;99.90
12588;DHT22;6359;51.450;7.346;2023-06-24T11:50:14;31.30;99.90
12588;DHT22;6359;51.450;7.346;2023-06-24T11:52:42;31.00;99.90
12588;DHT22;6359;51.450;7.346;2023-06-24T11:55:16;30.80;99.90
12588;DHT22;6359;51.450;7.346;2023-06-24T11:57:54;30.70;99.90
12588;DHT22;6359;51.450;7.346;2023-06-24T12:00:24;30.60;99.90
12588;DHT22;6359;51.450;7.346;2023-06-24T12:02:52;30.50;99.90
12588;DHT22;6359;51.450;7.346;2023-06-24T12:05:21;30.40;99.90
12588;DHT22;6359;51.450;7.346;2023-06-24T12:07:53;30.50;99.90
12588;DHT22;6359;51.450;7.346;2023-06-24T12:10:20;30.50;99.90
12588;DHT22;6359;51.450;7.346;2023-06-24T12:12:47;30.40;99.90
12588;DHT22;6359;51.450;7.346;2023-06-24T12:15:14;30.50;99.90
12588;DHT22;6359;51.450;7.346;2023-06-24T12:17:42;30.50;99.90
12588;DHT22;6359;51.450;7.346;2023-06-24T12:20:09;30.50;99.90
12588;DHT22;6359;51.450;7.346;2023-06-24T12:22:36;30.40;99.90
12588;DHT22;6359;51.450;7.346;2023-06-24T12:25:04;30.30;99.90
12588;DHT22;6359;51.450;7.346;2023-06-24T12:27:31;30.50;99.90
12588;DHT22;6359;51.450;7.346;2023-06-24T12:29:57;30.60;99.90
12588;DHT22;6359;51.450;7.346;2023-06-24T12:32:24;30.40;99.90
12588;DHT22;6359;51.450;7.346;2023-06-24T12:34:53;30.30;99.90
12588;DHT22;6359;51.450;7.346;2023-06-24T12:37:19;30.50;99.90
12588;DHT22;6359;51.450;7.346;2023-06-24T12:39:46;30.60;99.90
12588;DHT22;6359;51.450;7.346;2023-06-24T12:42:13;30.60;99.90
12588;DHT22;6359;51.450;7.346;2023-06-24T12:44:40;30.40;99.90
12588;DHT22;6359;51.450;7.346;2023-06-24T12:47:07;30.30;99.90
12588;DHT22;6359;51.450;7.346;2023-06-24T12:49:34;30.20;99.90
12588;DHT22;6359;51.450;7.346;2023-06-24T12:52:02;30.40;99.90
12588;DHT22;6359;51.450;7.346;2023-06-24T12:54:29;30.20;99.90
12588;DHT22;6359;51.450;7.346;2023-06-24T12:56:56;30.30;99.90
12588;DHT22;6359;51.450;7.346;2023-06-24T12:59:23;29.90;99.90
12588;DHT22;6359;51.450;7.346;2023-06-24T13:01:50;29.80;99.90
12588;DHT22;6359;51.450;7.346;2023-06-24T13:04:17;29.90;99.90
12588;DHT22;6359;51.450;7.346;2023-06-24T13:06:45;29.90;99.90
12588;DHT22;6359;51.450;7.346;2023-06-24T13:09:14;29.80;99.90
12588;DHT22;6359;51.450;7.346;2023-06-24T13:11:41;29.60;99.90
12588;DHT22;6359;51.450;7.346;2023-06-24T13:14:08;29.70;99.90
12588;DHT22;6359;51.450;7.346;2023-06-24T13:16:35;29.60;99.90
12588;DHT22;6359;51.450;7.346;2023-06-24T13:19:02;29.60;99.90
12588;DHT22;6359;51.450;7.346;2023-06-24T13:21:29;29.50;99.90
12588;DHT22;6359;51.450;7.346;2023-06-24T13:23:56;29.60;99.90
12588;DHT22;6359;51.450;7.346;2023-06-24T13:26:24;29.60;99.90
12588;DHT22;6359;51.450;7.346;2023-06-24T13:28:51;29.60;99.90
12588;DHT22;6359;51.450;7.346;2023-06-24T13:31:19;29.40;99.90
12588;DHT22;6359;51.450;7.346;2023-06-24T13:33:46;29.40;99.90
12588;DHT22;6359;51.450;7.346;2023-06-24T13:36:31;29.40;99.90
12588;DHT22;6359;51.450;7.346;2023-06-24T13:39:01;29.60;99.90
12588;DHT22;6359;51.450;7.346;2023-06-24T13:41:29;29.70;99.90
12588;DHT22;6359;51.450;7.346;2023-06-24T13:43:58;29.70;99.90
12588;DHT22;6359;51.450;7.346;2023-06-24T13:46:25;29.60;99.90
12588;DHT22;6359;51.450;7.346;2023-06-24T13:48:52;29.40;99.90
12588;DHT22;6359;51.450;7.346;2023-06-24T13:51:19;29.50;99.90
12588;DHT22;6359;51.450;7.346;2023-06-24T13:53:47;29.60;99.90
12588;DHT22;6359;51.450;7.346;2023-06-24T13:56:14;29.70;99.90
12588;DHT22;6359;51.450;7.346;2023-06-24T13:58:42;29.60;99.90
12588;DHT22;6359;51.450;7.346;2023-06-24T14:01:09;29.50;99.90
12588;DHT22;6359;51.450;7.346;2023-06-24T14:03:36;29.40;99.90
12588;DHT22;6359;51.450;7.346;2023-06-24T14:06:03;29.30;99.90
12588;DHT22;6359;51.450;7.346;2023-06-24T14:08:31;29.20;99.90
12588;DHT22;6359;51.450;7.346;2023-06-24T14:10:59;29.20;99.90
12588;DHT22;6359;51.450;7.346;2023-06-24T14:13:26;29.00;99.90
12588;DHT22;6359;51.450;7.346;2023-06-24T14:15:55;29.00;99.90
12588;DHT22;6359;51.450;7.346;2023-06-24T14:18:22;29.10;99.90
12588;DHT22;6359;51.450;7.346;2023-06-24T14:20:49;29.20;99.90
12588;DHT22;6359;51.450;7.346;2023-06-24T14:23:16;29.30;99.90
12588;DHT22;6359;51.450;7.346;2023-06-24T14:25:43;29.30;99.90
12588;DHT22;6359;51.450;7.346;2023-06-24T14:28:10;29.40;99.90
12588;DHT22;6359;51.450;7.346;2023-06-24T14:30:37;29.40;99.90
12588;DHT22;6359;51.450;7.346;2023-06-24T14:33:05;29.40;99.90
12588;DHT22;6359;51.450;7.346;2023-06-24T14:35:32;29.30;99.90
12588;DHT22;6359;51.450;7.346;2023-06-24T14:37:59;29.10;99.90
12588;DHT22;6359;51.450;7.346;2023-06-24T14:40:25;28.90;99.90
12588;DHT22;6359;51.450;7.346;2023-06-24T14:42:52;29.10;99.90
12588;DHT22;6359;51.450;7.346;2023-06-24T14:45:19;29.20;99.90
12588;DHT22;6359;51.450;7.346;2023-06-24T14:47:46;29.40;99.90
12588;DHT22;6359;51.450;7.346;2023-06-24T14:50:15;29.50;99.90
12588;DHT22;6359;51.450;7.346;2023-06-24T14:52:41;29.50;99.90
12588;DHT22;6359;51.450;7.346;2023-06-24T14:55:09;29.50;99.90
12588;DHT22;6359;51.450;7.346;2023-06-24T14:57:36;29.50;99.90
12588;DHT22;6359;51.450;7.346;2023-06-24T15:00:05;29.60;99.90
12588;DHT22;6359;51.450;7.346;2023-06-24T15:02:32;29.60;99.90
12588;DHT22;6359;51.450;7.346;2023-06-24T15:04:59;29.70;99.90
12588;DHT22;6359;51.450;7.346;2023-06-24T15:07:27;29.60;99.90
12588;DHT22;6359;51.450;7.346;2023-06-24T15:09:54;29.60;99.90
12588;DHT22;6359;51.450;7.346;2023-06-24T15:12:21;29.70;99.90
12588;DHT22;6359;51.450;7.346;2023-06-24T15:14:47;29.60;99.90
12588;DHT22;6359;51.450;7.346;2023-06-24T15:17:14;29.60;99.90
12588;DHT22;6359;51.450;7.346;2023-06-24T15:19:41;29.40;99.90
12588;DHT22;6359;51.450;7.346;2023-06-24T15:22:08;29.40;99.90
12588;DHT22;6359;51.450;7.346;2023-06-24T15:24:37;29.20;99.90
12588;DHT22;6359;51.450;7.346;2023-06-24T15:27:04;29.30;99.90
12588;DHT22;6359;51.450;7.346;2023-06-24T15:29:31;29.10;99.90
12588;DHT22;6359;51.450;7.346;2023-06-24T15:31:58;29.00;99.90
12588;DHT22;6359;51.450;7.346;2023-06-24T15:34:24;28.80;99.90
12588;DHT22;6359;51.450;7.346;2023-06-24T15:36:51;28.70;99.90
12588;DHT22;6359;51.450;7.346;2023-06-24T15:39:18;28.80;99.90
12588;DHT22;6359;51.450;7.346;2023-06-24T15:41:47;28.90;99.90
12588;DHT22;6359;51.450;7.346;2023-06-24T15:44:15;29.00;99.90
12588;DHT22;6359;51.450;7.346;2023-06-24T15:46:42;29.00;99.90
12588;DHT22;6359;51.450;7.346;2023-06-24T15:49:10;28.90;99.90
12588;DHT22;6359;51.450;7.346;2023-06-24T15:51:36;28.80;99.90
12588;DHT22;6359;51.450;7.346;2023-06-24T15:54:03;28.90;99.90